Terminal Aerodrome Forecast
Issued by NWS Blacksburg, VA

Home | Current Version | Previous Version | Text Only | Print | Product List | Glossary On
Versions: 1 2 3 4 5 6 7 8 9 10 11 12 13 14 15 16 17 18 19
000
FTUS41 KRNK 230351 AAB
TAFBLF
TAF AMD
KBLF 230351Z 2304/2324 17010G20KT P6SM -SHRA OVC018
     FM230600 19012G22KT 4SM -SHRA OVC025
     FM231000 25011G22KT P6SM VCSH OVC040
     FM231400 26014G26KT P6SM BKN045=

USA.gov is the U.S. government's official web portal to all federal, state and local government web resources and services.